sensor_id;sensor_type;location;lat;lon;timestamp;pressure;altitude;pressure_sealevel;temperature;humidity
51195;BME280;37259;49.972;19.850;2023-05-01T00:00:47;99190;;;3.1;70.8
51195;BME280;37259;49.972;19.850;2023-05-01T00:01:47;99190;;;3.1;70.7
51195;BME280;37259;49.972;19.850;2023-05-01T00:02:47;99190;;;3.1;70.7
51195;BME280;37259;49.972;19.850;2023-05-01T00:03:47;99190;;;3.1;71.2
51195;BME280;37259;49.972;19.850;2023-05-01T00:04:47;99190;;;3.1;71.3
51195;BME280;37259;49.972;19.850;2023-05-01T00:05:47;99190;;;3.1;71.3
51195;BME280;37259;49.972;19.850;2023-05-01T00:06:47;99190;;;3;71.3
51195;BME280;37259;49.972;19.850;2023-05-01T00:07:47;99190;;;3;71.3
51195;BME280;37259;49.972;19.850;2023-05-01T00:08:47;99190;;;3;71.4
51195;BME280;37259;49.972;19.850;2023-05-01T00:09:47;99190;;;3;71.4
51195;BME280;37259;49.972;19.850;2023-05-01T00:10:47;99200;;;3;71.8
51195;BME280;37259;49.972;19.850;2023-05-01T00:11:47;99200;;;3;71.8
51195;BME280;37259;49.972;19.850;2023-05-01T00:12:47;99200;;;3;71.8
51195;BME280;37259;49.972;19.850;2023-05-01T00:13:47;99200;;;3;71.8
51195;BME280;37259;49.972;19.850;2023-05-01T00:14:47;99200;;;2.9;71.7
51195;BME280;37259;49.972;19.850;2023-05-01T00:15:47;99200;;;2.9;71.8
51195;BME280;37259;49.972;19.850;2023-05-01T00:16:47;99200;;;2.9;71.8
51195;BME280;37259;49.972;19.850;2023-05-01T00:17:47;99200;;;2.9;71.8
51195;BME280;37259;49.972;19.850;2023-05-01T00:18:47;99200;;;2.9;71.8
51195;BME280;37259;49.972;19.850;2023-05-01T00:19:49;99200;;;2.8;71.6
51195;BME280;37259;49.972;19.850;2023-05-01T00:20:47;99200;;;2.8;71.7
51195;BME280;37259;49.972;19.850;2023-05-01T00:21:47;99200;;;2.8;71.7
51195;BME280;37259;49.972;19.850;2023-05-01T00:22:47;99200;;;2.8;72.1
51195;BME280;37259;49.972;19.850;2023-05-01T00:23:47;99200;;;2.8;72.1
51195;BME280;37259;49.972;19.850;2023-05-01T00:24:47;99200;;;2.8;72
51195;BME280;37259;49.972;19.850;2023-05-01T00:25:47;99200;;;2.8;72
51195;BME280;37259;49.972;19.850;2023-05-01T00:26:47;99190;;;2.7;72
51195;BME280;37259;49.972;19.850;2023-05-01T00:27:47;99190;;;2.7;72
51195;BME280;37259;49.972;19.850;2023-05-01T00:28:47;99190;;;2.7;72
51195;BME280;37259;49.972;19.850;2023-05-01T00:29:47;99190;;;2.7;72
51195;BME280;37259;49.972;19.850;2023-05-01T00:30:47;99200;;;2.7;72.3
51195;BME280;37259;49.972;19.850;2023-05-01T00:31:47;99200;;;2.7;72.2
51195;BME280;37259;49.972;19.850;2023-05-01T00:32:47;99200;;;2.7;72.2
51195;BME280;37259;49.972;19.850;2023-05-01T00:33:47;99200;;;2.6;72.4
51195;BME280;37259;49.972;19.850;2023-05-01T00:34:47;99200;;;2.6;72.5
51195;BME280;37259;49.972;19.850;2023-05-01T00:35:47;99200;;;2.6;72.4
51195;BME280;37259;49.972;19.850;2023-05-01T00:36:47;99200;;;2.6;72.4
51195;BME280;37259;49.972;19.850;2023-05-01T00:37:47;99200;;;2.6;72.4
51195;BME280;37259;49.972;19.850;2023-05-01T00:38:47;99200;;;2.5;72.3
51195;BME280;37259;49.972;19.850;2023-05-01T00:39:47;99200;;;2.5;72.3
51195;BME280;37259;49.972;19.850;2023-05-01T00:40:47;99190;;;2.5;72.3
51195;BME280;37259;49.972;19.850;2023-05-01T00:41:47;99190;;;2.5;72.3
51195;BME280;37259;49.972;19.850;2023-05-01T00:42:47;99190;;;2.5;72.3
51195;BME280;37259;49.972;19.850;2023-05-01T00:43:47;99200;;;2.5;72.4
51195;BME280;37259;49.972;19.850;2023-05-01T00:44:47;99200;;;2.5;72.4
51195;BME280;37259;49.972;19.850;2023-05-01T00:45:47;99190;;;2.5;72.5
51195;BME280;37259;49.972;19.850;2023-05-01T00:46:47;99190;;;2.4;72.5
51195;BME280;37259;49.972;19.850;2023-05-01T00:47:47;99200;;;2.4;72.9
51195;BME280;37259;49.972;19.850;2023-05-01T00:48:47;99200;;;2.4;72.9
51195;BME280;37259;49.972;19.850;2023-05-01T00:49:47;99190;;;2.4;73.2
51195;BME280;37259;49.972;19.850;2023-05-01T00:50:47;99190;;;2.4;73.2
51195;BME280;37259;49.972;19.850;2023-05-01T00:51:47;99190;;;2.4;73.5
51195;BME280;37259;49.972;19.850;2023-05-01T00:52:47;99190;;;2.4;73.6
51195;BME280;37259;49.972;19.850;2023-05-01T00:53:47;99190;;;2.4;73.6
51195;BME280;37259;49.972;19.850;2023-05-01T00:54:47;99200;;;2.4;73.7
51195;BME280;37259;49.972;19.850;2023-05-01T00:55:47;99200;;;2.4;73.7
51195;BME280;37259;49.972;19.850;2023-05-01T00:56:47;99200;;;2.3;73.8
51195;BME280;37259;49.972;19.850;2023-05-01T00:57:47;99200;;;2.3;73.8
51195;BME280;37259;49.972;19.850;2023-05-01T00:58:48;99200;;;2.3;73.8
51195;BME280;37259;49.972;19.850;2023-05-01T00:59:47;99200;;;2.3;73.9
51195;BME280;37259;49.972;19.850;2023-05-01T01:00:47;99200;;;2.3;73.8
51195;BME280;37259;49.972;19.850;2023-05-01T01:01:47;99200;;;2.3;73.8
51195;BME280;37259;49.972;19.850;2023-05-01T01:02:47;99200;;;2.2;73.8
51195;BME280;37259;49.972;19.850;2023-05-01T01:03:47;99200;;;2.2;73.7
51195;BME280;37259;49.972;19.850;2023-05-01T01:04:47;99200;;;2.2;73.7
51195;BME280;37259;49.972;19.850;2023-05-01T01:05:49;99200;;;2.2;73.8
51195;BME280;37259;49.972;19.850;2023-05-01T01:06:49;99200;;;2.2;73.8
51195;BME280;37259;49.972;19.850;2023-05-01T01:07:48;99200;;;2.2;73.8
51195;BME280;37259;49.972;19.850;2023-05-01T01:08:48;99200;;;2.2;73.7
51195;BME280;37259;49.972;19.850;2023-05-01T01:09:51;99200;;;2.1;73.9
51195;BME280;37259;49.972;19.850;2023-05-01T01:10:49;99200;;;2.1;73.9
51195;BME280;37259;49.972;19.850;2023-05-01T01:11:49;99200;;;2.1;73.9
51195;BME280;37259;49.972;19.850;2023-05-01T01:12:49;99200;;;2.1;73.9
51195;BME280;37259;49.972;19.850;2023-05-01T01:13:50;99200;;;2.1;73.9
51195;BME280;37259;49.972;19.850;2023-05-01T01:14:47;99200;;;2.1;73.9
51195;BME280;37259;49.972;19.850;2023-05-01T01:15:48;99200;;;2.1;73.8
51195;BME280;37259;49.972;19.850;2023-05-01T01:16:50;99200;;;2.1;73.8
51195;BME280;37259;49.972;19.850;2023-05-01T01:17:48;99190;;;2;73.9
51195;BME280;37259;49.972;19.850;2023-05-01T01:18:47;99190;;;2;74
51195;BME280;37259;49.972;19.850;2023-05-01T01:19:53;99190;;;2;74
51195;BME280;37259;49.972;19.850;2023-05-01T01:20:48;99190;;;2;74
51195;BME280;37259;49.972;19.850;2023-05-01T01:21:48;99190;;;2;74.1
51195;BME280;37259;49.972;19.850;2023-05-01T01:22:49;99190;;;2;74.1
51195;BME280;37259;49.972;19.850;2023-05-01T01:24:20;99190;;;2;74.1
51195;BME280;37259;49.972;19.850;2023-05-01T01:24:52;99190;;;1.9;74.1
51195;BME280;37259;49.972;19.850;2023-05-01T01:26:03;99190;;;1.9;74.1
51195;BME280;37259;49.972;19.850;2023-05-01T01:27:25;99200;;;1.9;74.1
51195;BME280;37259;49.972;19.850;2023-05-01T01:27:53;99200;;;1.9;74.1
51195;BME280;37259;49.972;19.850;2023-05-01T01:29:50;99200;;;1.9;74.2
51195;BME280;37259;49.972;19.850;2023-05-01T01:30:53;99200;;;1.9;74.2
51195;BME280;37259;49.972;19.850;2023-05-01T01:31:50;99200;;;1.9;74.3
51195;BME280;37259;49.972;19.850;2023-05-01T01:33:13;99200;;;1.8;74.3
51195;BME280;37259;49.972;19.850;2023-05-01T01:33:49;99200;;;1.8;74.3
51195;BME280;37259;49.972;19.850;2023-05-01T01:34:48;99200;;;1.8;74.4
51195;BME280;37259;49.972;19.850;2023-05-01T01:35:49;99200;;;1.8;74.4
51195;BME280;37259;49.972;19.850;2023-05-01T01:36:48;99200;;;1.8;74.5
51195;BME280;37259;49.972;19.850;2023-05-01T01:37:47;99200;;;1.8;74.6
51195;BME280;37259;49.972;19.850;2023-05-01T01:38:57;99200;;;1.8;74.6
51195;BME280;37259;49.972;19.850;2023-05-01T01:39:48;99200;;;1.8;74.6
51195;BME280;37259;49.972;19.850;2023-05-01T01:40:49;99200;;;1.7;74.7
51195;BME280;37259;49.972;19.850;2023-05-01T01:41:48;99200;;;1.7;74.7
51195;BME280;37259;49.972;19.850;2023-05-01T01:42:48;99190;;;1.7;74.8
51195;BME280;37259;49.972;19.850;2023-05-01T01:43:48;99190;;;1.7;74.9
51195;BME280;37259;49.972;19.850;2023-05-01T01:44:48;99190;;;1.7;74.9
51195;BME280;37259;49.972;19.850;2023-05-01T01:45:48;99190;;;1.7;75.1
51195;BME280;37259;49.972;19.850;2023-05-01T01:46:47;99190;;;1.7;75.3
51195;BME280;37259;49.972;19.850;2023-05-01T01:47:47;99190;;;1.7;75.5
51195;BME280;37259;49.972;19.850;2023-05-01T01:48:47;99190;;;1.7;75.5
51195;BME280;37259;49.972;19.850;2023-05-01T01:49:48;99190;;;1.6;75.5
51195;BME280;37259;49.972;19.850;2023-05-01T01:50:47;99190;;;1.6;75.5
51195;BME280;37259;49.972;19.850;2023-05-01T01:51:47;99190;;;1.6;75.8
51195;BME280;37259;49.972;19.850;2023-05-01T01:52:48;99190;;;1.6;75.8
51195;BME280;37259;49.972;19.850;2023-05-01T01:53:48;99180;;;1.6;76
51195;BME280;37259;49.972;19.850;2023-05-01T01:54:47;99180;;;1.6;76
51195;BME280;37259;49.972;19.850;2023-05-01T01:55:47;99180;;;1.6;76.1
51195;BME280;37259;49.972;19.850;2023-05-01T01:56:47;99180;;;1.6;76.1
51195;BME280;37259;49.972;19.850;2023-05-01T01:57:47;99180;;;1.6;76.3
51195;BME280;37259;49.972;19.850;2023-05-01T01:58:47;99180;;;1.6;76.3
51195;BME280;37259;49.972;19.850;2023-05-01T01:59:47;99180;;;1.6;76.3
51195;BME280;37259;49.972;19.850;2023-05-01T02:00:47;99180;;;1.6;76.4
51195;BME280;37259;49.972;19.850;2023-05-01T02:01:47;99180;;;1.6;76.4
51195;BME280;37259;49.972;19.850;2023-05-01T02:02:47;99180;;;1.5;76.4
51195;BME280;37259;49.972;19.850;2023-05-01T02:03:47;99180;;;1.5;76.5
51195;BME280;37259;49.972;19.850;2023-05-01T02:04:47;99180;;;1.5;76.5
51195;BME280;37259;49.972;19.850;2023-05-01T02:05:48;99180;;;1.5;76.5
51195;BME280;37259;49.972;19.850;2023-05-01T02:06:47;99180;;;1.5;76.5
51195;BME280;37259;49.972;19.850;2023-05-01T02:07:47;99180;;;1.5;76.5
51195;BME280;37259;49.972;19.850;2023-05-01T02:08:47;99180;;;1.4;76.7
51195;BME280;37259;49.972;19.850;2023-05-01T02:09:47;99180;;;1.4;76.7
51195;BME280;37259;49.972;19.850;2023-05-01T02:10:47;99180;;;1.4;76.7
51195;BME280;37259;49.972;19.850;2023-05-01T02:11:47;99180;;;1.4;76.8
51195;BME280;37259;49.972;19.850;2023-05-01T02:12:47;99180;;;1.4;76.8
51195;BME280;37259;49.972;19.850;2023-05-01T02:13:47;99180;;;1.4;77
51195;BME280;37259;49.972;19.850;2023-05-01T02:14:47;99180;;;1.4;77
51195;BME280;37259;49.972;19.850;2023-05-01T02:15:47;99180;;;1.4;77.2
51195;BME280;37259;49.972;19.850;2023-05-01T02:16:47;99180;;;1.4;77.2
51195;BME280;37259;49.972;19.850;2023-05-01T02:17:47;99180;;;1.4;77.2
51195;BME280;37259;49.972;19.850;2023-05-01T02:18:47;99180;;;1.4;77.2
51195;BME280;37259;49.972;19.850;2023-05-01T02:19:47;99170;;;1.3;77.7
51195;BME280;37259;49.972;19.850;2023-05-01T02:20:47;99170;;;1.3;78.1
51195;BME280;37259;49.972;19.850;2023-05-01T02:21:47;99170;;;1.3;78.1
51195;BME280;37259;49.972;19.850;2023-05-01T02:22:48;99170;;;1.3;78.5
51195;BME280;37259;49.972;19.850;2023-05-01T02:23:47;99170;;;1.3;78.5
51195;BME280;37259;49.972;19.850;2023-05-01T02:24:47;99170;;;1.3;78.6
51195;BME280;37259;49.972;19.850;2023-05-01T02:25:47;99170;;;1.3;78.6
51195;BME280;37259;49.972;19.850;2023-05-01T02:26:48;99170;;;1.3;78.8
51195;BME280;37259;49.972;19.850;2023-05-01T02:27:49;99170;;;1.3;78.8
51195;BME280;37259;49.972;19.850;2023-05-01T02:28:47;99170;;;1.3;79
51195;BME280;37259;49.972;19.850;2023-05-01T02:29:47;99170;;;1.3;79
51195;BME280;37259;49.972;19.850;2023-05-01T02:30:47;99170;;;1.3;79
51195;BME280;37259;49.972;19.850;2023-05-01T02:31:47;99170;;;1.3;79
51195;BME280;37259;49.972;19.850;2023-05-01T02:32:47;99170;;;1.3;79
51195;BME280;37259;49.972;19.850;2023-05-01T02:33:47;99170;;;1.3;79
51195;BME280;37259;49.972;19.850;2023-05-01T02:34:47;99170;;;1.3;79
51195;BME280;37259;49.972;19.850;2023-05-01T02:35:47;99170;;;1.3;79
51195;BME280;37259;49.972;19.850;2023-05-01T02:36:47;99170;;;1.3;78.9
51195;BME280;37259;49.972;19.850;2023-05-01T02:37:47;99170;;;1.3;78.9
51195;BME280;37259;49.972;19.850;2023-05-01T02:38:47;99160;;;1.2;78.9
51195;BME280;37259;49.972;19.850;2023-05-01T02:39:47;99160;;;1.2;78.9
51195;BME280;37259;49.972;19.850;2023-05-01T02:40:48;99160;;;1.2;78.8
51195;BME280;37259;49.972;19.850;2023-05-01T02:41:47;99160;;;1.2;78.8
51195;BME280;37259;49.972;19.850;2023-05-01T02:42:47;99160;;;1.2;78.8
51195;BME280;37259;49.972;19.850;2023-05-01T02:43:47;99160;;;1.2;78.8
51195;BME280;37259;49.972;19.850;2023-05-01T02:44:47;99160;;;1.2;78.7
51195;BME280;37259;49.972;19.850;2023-05-01T02:45:47;99160;;;1.2;78.6
51195;BME280;37259;49.972;19.850;2023-05-01T02:46:47;99160;;;1.2;78.6
51195;BME280;37259;49.972;19.850;2023-05-01T02:47:48;99160;;;1.1;78.5
51195;BME280;37259;49.972;19.850;2023-05-01T02:48:47;99160;;;1.1;78.5
51195;BME280;37259;49.972;19.850;2023-05-01T02:49:47;99160;;;1.1;78.5
51195;BME280;37259;49.972;19.850;2023-05-01T02:50:47;99160;;;1.1;78.5
51195;BME280;37259;49.972;19.850;2023-05-01T02:51:47;99160;;;1.1;78.5
51195;BME280;37259;49.972;19.850;2023-05-01T02:52:47;99160;;;1.1;78.5
51195;BME280;37259;49.972;19.850;2023-05-01T02:53:47;99160;;;1.1;78.5
51195;BME280;37259;49.972;19.850;2023-05-01T02:54:47;99150;;;1.1;78.6
51195;BME280;37259;49.972;19.850;2023-05-01T02:55:47;99150;;;1.1;78.6
51195;BME280;37259;49.972;19.850;2023-05-01T02:56:47;99150;;;1.1;78.5
51195;BME280;37259;49.972;19.850;2023-05-01T02:57:49;99150;;;1.1;78.5
51195;BME280;37259;49.972;19.850;2023-05-01T02:58:47;99150;;;1;78.6
51195;BME280;37259;49.972;19.850;2023-05-01T02:59:47;99150;;;1;78.6
51195;BME280;37259;49.972;19.850;2023-05-01T03:00:47;99150;;;1;78.6
51195;BME280;37259;49.972;19.850;2023-05-01T03:01:47;99150;;;1;78.6
51195;BME280;37259;49.972;19.850;2023-05-01T03:02:47;99150;;;1;78.6
51195;BME280;37259;49.972;19.850;2023-05-01T03:03:47;99150;;;1;78.6
51195;BME280;37259;49.972;19.850;2023-05-01T03:04:47;99150;;;1;78.6
51195;BME280;37259;49.972;19.850;2023-05-01T03:05:47;99150;;;1;78.6
51195;BME280;37259;49.972;19.850;2023-05-01T03:06:47;99150;;;1;78.6
51195;BME280;37259;49.972;19.850;2023-05-01T03:07:47;99150;;;1;78.6
51195;BME280;37259;49.972;19.850;2023-05-01T03:08:47;99140;;;0.9;78.6
51195;BME280;37259;49.972;19.850;2023-05-01T03:09:47;99140;;;0.9;78.6
51195;BME280;37259;49.972;19.850;2023-05-01T03:10:47;99140;;;0.9;78.6
51195;BME280;37259;49.972;19.850;2023-05-01T03:11:47;99140;;;0.9;79
51195;BME280;37259;49.972;19.850;2023-05-01T03:12:47;99140;;;0.9;79.1
51195;BME280;37259;49.972;19.850;2023-05-01T03:13:47;99140;;;0.9;79.3
51195;BME280;37259;49.972;19.850;2023-05-01T03:14:47;99140;;;0.9;79.3
51195;BME280;37259;49.972;19.850;2023-05-01T03:15:47;99140;;;0.9;79.4
51195;BME280;37259;49.972;19.850;2023-05-01T03:16:47;99140;;;0.9;79.5
51195;BME280;37259;49.972;19.850;2023-05-01T03:17:47;99140;;;0.9;79.5
51195;BME280;37259;49.972;19.850;2023-05-01T03:18:47;99140;;;0.9;79.5
51195;BME280;37259;49.972;19.850;2023-05-01T03:19:47;99140;;;0.9;79.4
51195;BME280;37259;49.972;19.850;2023-05-01T03:20:50;99140;;;0.9;79.4
51195;BME280;37259;49.972;19.850;2023-05-01T03:21:47;99140;;;0.9;79.4
51195;BME280;37259;49.972;19.850;2023-05-01T03:22:47;99140;;;0.9;79.4
51195;BME280;37259;49.972;19.850;2023-05-01T03:23:47;99140;;;0.9;79.4
51195;BME280;37259;49.972;19.850;2023-05-01T03:24:47;99140;;;0.9;79.5
51195;BME280;37259;49.972;19.850;2023-05-01T03:25:47;99140;;;0.9;79.5
51195;BME280;37259;49.972;19.850;2023-05-01T03:26:47;99140;;;0.9;79.5
51195;BME280;37259;49.972;19.850;2023-05-01T03:27:47;99130;;;0.9;79.5
51195;BME280;37259;49.972;19.850;2023-05-01T03:28:47;99130;;;0.9;79.5
51195;BME280;37259;49.972;19.850;2023-05-01T03:29:47;99130;;;0.9;79.6
51195;BME280;37259;49.972;19.850;2023-05-01T03:30:48;99130;;;0.9;79.6
51195;BME280;37259;49.972;19.850;2023-05-01T03:31:47;99130;;;0.9;79.8
51195;BME280;37259;49.972;19.850;2023-05-01T03:32:47;99130;;;0.9;79.8
51195;BME280;37259;49.972;19.850;2023-05-01T03:33:47;99130;;;0.9;79.8
51195;BME280;37259;49.972;19.850;2023-05-01T03:34:47;99130;;;1;79.9
51195;BME280;37259;49.972;19.850;2023-05-01T03:35:47;99130;;;1;79.9
51195;BME280;37259;49.972;19.850;2023-05-01T03:36:47;99130;;;1;79.9
51195;BME280;37259;49.972;19.850;2023-05-01T03:37:47;99130;;;1;79.9
51195;BME280;37259;49.972;19.850;2023-05-01T03:38:47;99130;;;1;79.9
51195;BME280;37259;49.972;19.850;2023-05-01T03:39:47;99130;;;1;79.9
51195;BME280;37259;49.972;19.850;2023-05-01T03:40:47;99130;;;1;79.9
51195;BME280;37259;49.972;19.850;2023-05-01T03:41:47;99130;;;1;79.9
51195;BME280;37259;49.972;19.850;2023-05-01T03:42:47;99130;;;1;79.9
51195;BME280;37259;49.972;19.850;2023-05-01T03:43:47;99130;;;1;79.9
51195;BME280;37259;49.972;19.850;2023-05-01T03:44:47;99130;;;1.1;79.9
51195;BME280;37259;49.972;19.850;2023-05-01T03:45:47;99120;;;1.1;79.9
51195;BME280;37259;49.972;19.850;2023-05-01T03:46:47;99120;;;1.1;79.9
51195;BME280;37259;49.972;19.850;2023-05-01T03:47:47;99120;;;1.1;80
51195;BME280;37259;49.972;19.850;2023-05-01T03:48:47;99120;;;1.1;80
51195;BME280;37259;49.972;19.850;2023-05-01T03:49:47;99120;;;1.1;80
51195;BME280;37259;49.972;19.850;2023-05-01T03:50:47;99120;;;1.1;80
51195;BME280;37259;49.972;19.850;2023-05-01T03:51:47;99120;;;1.1;80
51195;BME280;37259;49.972;19.850;2023-05-01T03:52:47;99120;;;1.1;80
51195;BME280;37259;49.972;19.850;2023-05-01T03:53:47;99120;;;1.1;80.1
51195;BME280;37259;49.972;19.850;2023-05-01T03:54:47;99120;;;1.1;80.1
51195;BME280;37259;49.972;19.850;2023-05-01T03:55:47;99120;;;1.1;80.1
51195;BME280;37259;49.972;19.850;2023-05-01T03:56:47;99120;;;1.1;80.1
51195;BME280;37259;49.972;19.850;2023-05-01T03:57:47;99120;;;1.2;80.2
51195;BME280;37259;49.972;19.850;2023-05-01T03:58:47;99120;;;1.2;80.3
51195;BME280;37259;49.972;19.850;2023-05-01T03:59:47;99120;;;1.2;80.3
51195;BME280;37259;49.972;19.850;2023-05-01T04:00:47;99120;;;1.2;80.4
51195;BME280;37259;49.972;19.850;2023-05-01T04:01:47;99120;;;1.2;80.4
51195;BME280;37259;49.972;19.850;2023-05-01T04:02:47;99120;;;1.2;80.5
51195;BME280;37259;49.972;19.850;2023-05-01T04:03:47;99120;;;1.2;80.5
51195;BME280;37259;49.972;19.850;2023-05-01T04:04:47;99120;;;1.2;80.5
51195;BME280;37259;49.972;19.850;2023-05-01T04:05:47;99120;;;1.3;80.7
51195;BME280;37259;49.972;19.850;2023-05-01T04:06:47;99120;;;1.3;80.8
51195;BME280;37259;49.972;19.850;2023-05-01T04:07:47;99130;;;1.3;80.8
51195;BME280;37259;49.972;19.850;2023-05-01T04:08:47;99130;;;1.3;80.9
51195;BME280;37259;49.972;19.850;2023-05-01T04:09:47;99130;;;1.3;81.1
51195;BME280;37259;49.972;19.850;2023-05-01T04:10:47;99130;;;1.4;81.1
51195;BME280;37259;49.972;19.850;2023-05-01T04:11:47;99130;;;1.4;81.2
51195;BME280;37259;49.972;19.850;2023-05-01T04:12:47;99130;;;1.4;81.4
51195;BME280;37259;49.972;19.850;2023-05-01T04:13:47;99130;;;1.4;81.6
51195;BME280;37259;49.972;19.850;2023-05-01T04:14:47;99130;;;1.4;81.6
51195;BME280;37259;49.972;19.850;2023-05-01T04:15:47;99130;;;1.5;81.8
51195;BME280;37259;49.972;19.850;2023-05-01T04:16:47;99130;;;1.5;81.8
51195;BME280;37259;49.972;19.850;2023-05-01T04:17:47;99130;;;1.5;81.8
51195;BME280;37259;49.972;19.850;2023-05-01T04:18:47;99130;;;1.5;81.9
51195;BME280;37259;49.972;19.850;2023-05-01T04:19:47;99130;;;1.6;82
51195;BME280;37259;49.972;19.850;2023-05-01T04:20:47;99130;;;1.6;82
51195;BME280;37259;49.972;19.850;2023-05-01T04:21:47;99130;;;1.6;82.2
51195;BME280;37259;49.972;19.850;2023-05-01T04:22:47;99130;;;1.6;82.2
51195;BME280;37259;49.972;19.850;2023-05-01T04:23:47;99130;;;1.7;82.2
51195;BME280;37259;49.972;19.850;2023-05-01T04:24:47;99130;;;1.7;82.3
51195;BME280;37259;49.972;19.850;2023-05-01T04:25:47;99130;;;1.7;82.3
51195;BME280;37259;49.972;19.850;2023-05-01T04:26:47;99130;;;1.8;82.2
51195;BME280;37259;49.972;19.850;2023-05-01T04:27:47;99130;;;1.8;82.2
51195;BME280;37259;49.972;19.850;2023-05-01T04:28:47;99140;;;1.9;82.2
51195;BME280;37259;49.972;19.850;2023-05-01T04:29:47;99130;;;1.9;82.3
51195;BME280;37259;49.972;19.850;2023-05-01T04:30:47;99130;;;1.9;82.2
51195;BME280;37259;49.972;19.850;2023-05-01T04:31:47;99140;;;2;82.2
51195;BME280;37259;49.972;19.850;2023-05-01T04:32:47;99140;;;2;82.2
51195;BME280;37259;49.972;19.850;2023-05-01T04:33:47;99130;;;2.1;82.2
51195;BME280;37259;49.972;19.850;2023-05-01T04:34:47;99130;;;2.1;82.1
51195;BME280;37259;49.972;19.850;2023-05-01T04:35:47;99130;;;2.1;82.1
51195;BME280;37259;49.972;19.850;2023-05-01T04:36:47;99130;;;2.1;82.1
51195;BME280;37259;49.972;19.850;2023-05-01T04:37:47;99130;;;2.2;82
51195;BME280;37259;49.972;19.850;2023-05-01T04:38:47;99130;;;2.3;82
51195;BME280;37259;49.972;19.850;2023-05-01T04:39:47;99130;;;2.3;81.9
51195;BME280;37259;49.972;19.850;2023-05-01T04:40:47;99130;;;2.3;81.9
51195;BME280;37259;49.972;19.850;2023-05-01T04:41:47;99130;;;2.4;81.8
51195;BME280;37259;49.972;19.850;2023-05-01T04:42:47;99130;;;2.4;81.8
51195;BME280;37259;49.972;19.850;2023-05-01T04:43:47;99130;;;2.5;81.7
51195;BME280;37259;49.972;19.850;2023-05-01T04:44:47;99130;;;2.5;81.7
51195;BME280;37259;49.972;19.850;2023-05-01T04:45:47;99130;;;2.6;81.6
51195;BME280;37259;49.972;19.850;2023-05-01T04:46:47;99130;;;2.6;81.6
51195;BME280;37259;49.972;19.850;2023-05-01T04:47:47;99130;;;2.7;81.5
51195;BME280;37259;49.972;19.850;2023-05-01T04:48:47;99130;;;2.7;81.5
51195;BME280;37259;49.972;19.850;2023-05-01T04:49:47;99130;;;2.7;81.5
51195;BME280;37259;49.972;19.850;2023-05-01T04:50:47;99130;;;2.8;81.5
51195;BME280;37259;49.972;19.850;2023-05-01T04:51:47;99130;;;2.8;81.5
51195;BME280;37259;49.972;19.850;2023-05-01T04:52:47;99130;;;2.9;81.4
51195;BME280;37259;49.972;19.850;2023-05-01T04:53:47;99130;;;2.9;81.3
51195;BME280;37259;49.972;19.850;2023-05-01T04:54:47;99130;;;2.9;81.3
51195;BME280;37259;49.972;19.850;2023-05-01T04:55:47;99130;;;3;81.2
51195;BME280;37259;49.972;19.850;2023-05-01T04:56:47;99130;;;3.1;81.1
51195;BME280;37259;49.972;19.850;2023-05-01T04:57:47;99130;;;3.1;81.1
51195;BME280;37259;49.972;19.850;2023-05-01T04:58:47;99130;;;3.2;81
51195;BME280;37259;49.972;19.850;2023-05-01T04:59:47;99130;;;3.2;81
51195;BME280;37259;49.972;19.850;2023-05-01T05:00:47;99120;;;3.2;80.9
51195;BME280;37259;49.972;19.850;2023-05-01T05:01:47;99120;;;3.3;80.8
51195;BME280;37259;49.972;19.850;2023-05-01T05:02:47;99120;;;3.3;80.8
51195;BME280;37259;49.972;19.850;2023-05-01T05:03:47;99120;;;3.4;80.8
51195;BME280;37259;49.972;19.850;2023-05-01T05:04:47;99120;;;3.5;80.7
51195;BME280;37259;49.972;19.850;2023-05-01T05:05:47;99120;;;3.5;80.7
51195;BME280;37259;49.972;19.850;2023-05-01T05:06:47;99120;;;3.5;80.5
51195;BME280;37259;49.972;19.850;2023-05-01T05:07:47;99120;;;3.6;80.5
51195;BME280;37259;49.972;19.850;2023-05-01T05:08:47;99120;;;3.7;80.4
51195;BME280;37259;49.972;19.850;2023-05-01T05:09:47;99130;;;3.7;80.3
51195;BME280;37259;49.972;19.850;2023-05-01T05:10:47;99120;;;3.8;80.1
51195;BME280;37259;49.972;19.850;2023-05-01T05:11:47;99120;;;3.8;80.1
51195;BME280;37259;49.972;19.850;2023-05-01T05:12:47;99130;;;3.9;80
51195;BME280;37259;49.972;19.850;2023-05-01T05:13:47;99120;;;3.9;79.9
51195;BME280;37259;49.972;19.850;2023-05-01T05:14:47;99120;;;3.9;79.9
51195;BME280;37259;49.972;19.850;2023-05-01T05:15:47;99120;;;4;80
51195;BME280;37259;49.972;19.850;2023-05-01T05:16:47;99120;;;4;80
51195;BME280;37259;49.972;19.850;2023-05-01T05:17:47;99120;;;4.2;79.8
51195;BME280;37259;49.972;19.850;2023-05-01T05:18:47;99120;;;4.2;79.8
51195;BME280;37259;49.972;19.850;2023-05-01T05:19:47;99130;;;4.3;79.7
51195;BME280;37259;49.972;19.850;2023-05-01T05:20:47;99120;;;4.4;79.5
51195;BME280;37259;49.972;19.850;2023-05-01T05:21:47;99120;;;4.4;79.5
51195;BME280;37259;49.972;19.850;2023-05-01T05:22:47;99120;;;4.5;79.3
51195;BME280;37259;49.972;19.850;2023-05-01T05:23:47;99120;;;4.6;79.2
51195;BME280;37259;49.972;19.850;2023-05-01T05:24:51;99120;;;4.6;79.2
51195;BME280;37259;49.972;19.850;2023-05-01T05:25:47;99120;;;4.7;79
51195;BME280;37259;49.972;19.850;2023-05-01T05:26:47;99120;;;4.8;79.1
51195;BME280;37259;49.972;19.850;2023-05-01T05:27:47;99120;;;4.8;79.1
51195;BME280;37259;49.972;19.850;2023-05-01T05:28:48;99120;;;4.9;78.9
51195;BME280;37259;49.972;19.850;2023-05-01T05:29:47;99120;;;5;78.6
51195;BME280;37259;49.972;19.850;2023-05-01T05:30:47;99120;;;5;78.6
51195;BME280;37259;49.972;19.850;2023-05-01T05:31:47;99120;;;5.1;78.6
51195;BME280;37259;49.972;19.850;2023-05-01T05:32:47;99120;;;5.2;78.5
51195;BME280;37259;49.972;19.850;2023-05-01T05:33:47;99120;;;5.2;78.5
51195;BME280;37259;49.972;19.850;2023-05-01T05:34:47;99120;;;5.3;78.3
51195;BME280;37259;49.972;19.850;2023-05-01T05:35:47;99120;;;5.4;78.1
51195;BME280;37259;49.972;19.850;2023-05-01T05:36:47;99110;;;5.4;78
51195;BME280;37259;49.972;19.850;2023-05-01T05:37:47;99110;;;5.4;78
51195;BME280;37259;49.972;19.850;2023-05-01T05:38:47;99120;;;5.6;77.8
51195;BME280;37259;49.972;19.850;2023-05-01T05:39:47;99120;;;5.6;77.6
51195;BME280;37259;49.972;19.850;2023-05-01T05:40:47;99120;;;5.6;77.6
51195;BME280;37259;49.972;19.850;2023-05-01T05:41:47;99120;;;5.8;77.5
51195;BME280;37259;49.972;19.850;2023-05-01T05:42:47;99120;;;5.8;77.2
51195;BME280;37259;49.972;19.850;2023-05-01T05:43:47;99120;;;5.8;77.2